createdAt,value
2022-08-07T00:00:30.910Z,15.40
2022-08-07T00:02:58.775Z,15.30
2022-08-07T00:05:28.479Z,15.30
2022-08-07T00:08:00.532Z,15.30
2022-08-07T00:10:30.821Z,15.30
2022-08-07T00:13:09.881Z,15.20
2022-08-07T00:15:51.734Z,15.20
2022-08-07T00:18:24.325Z,15.10
2022-08-07T00:20:53.479Z,15.10
2022-08-07T00:23:23.366Z,15.00
2022-08-07T00:26:00.162Z,15.10
2022-08-07T00:28:34.164Z,15.10
2022-08-07T00:31:05.869Z,15.20
2022-08-07T00:33:35.493Z,15.20
2022-08-07T00:36:03.579Z,15.10
2022-08-07T00:38:34.825Z,15.00
2022-08-07T00:41:02.661Z,15.00
2022-08-07T00:44:00.694Z,15.00
2022-08-07T00:46:19.963Z,15.10
2022-08-07T00:48:51.788Z,15.00
2022-08-07T00:51:20.447Z,15.00
2022-08-07T00:53:55.327Z,15.00
2022-08-07T00:56:30.356Z,15.00
2022-08-07T00:59:02.168Z,14.90
2022-08-07T01:01:44.064Z,14.80
2022-08-07T01:04:12.199Z,14.80
2022-08-07T01:06:52.459Z,14.90
2022-08-07T01:10:02.396Z,14.90
2022-08-07T01:12:29.855Z,14.90
2022-08-07T01:15:01.768Z,14.90
2022-08-07T01:17:32.982Z,14.80
2022-08-07T01:20:06.568Z,14.80
2022-08-07T01:22:37.957Z,14.80
2022-08-07T01:25:54.514Z,14.90
2022-08-07T01:28:05.149Z,14.90
2022-08-07T01:30:34.148Z,14.90
2022-08-07T01:33:02.302Z,14.80
2022-08-07T01:35:52.808Z,14.80
2022-08-07T01:38:24.689Z,14.70
2022-08-07T01:40:55.439Z,14.70
2022-08-07T01:43:25.881Z,14.70
2022-08-07T01:45:54.818Z,14.60
2022-08-07T01:48:29.713Z,14.50
2022-08-07T01:51:24.540Z,14.40
2022-08-07T01:54:09.296Z,14.40
2022-08-07T01:56:49.318Z,14.30
2022-08-07T01:59:22.400Z,14.30
2022-08-07T02:02:01.942Z,14.30
2022-08-07T02:04:38.010Z,14.20
2022-08-07T02:07:08.788Z,14.20
2022-08-07T02:09:52.983Z,14.20
2022-08-07T02:12:29.314Z,14.20
2022-08-07T02:15:01.518Z,14.10
2022-08-07T02:17:35.619Z,14.10
2022-08-07T02:20:09.390Z,14.20
2022-08-07T02:22:45.990Z,14.30
2022-08-07T02:25:18.935Z,14.20
2022-08-07T02:27:51.977Z,14.20
2022-08-07T02:30:21.519Z,14.20
2022-08-07T02:33:00.786Z,14.20
2022-08-07T02:36:28.599Z,14.10
2022-08-07T02:38:31.814Z,14.10
2022-08-07T02:41:03.043Z,14.10
2022-08-07T02:43:32.420Z,14.00
2022-08-07T02:46:02.846Z,14.00
2022-08-07T02:48:31.723Z,14.00
2022-08-07T02:51:04.552Z,13.90
2022-08-07T02:53:38.574Z,13.90
2022-08-07T02:56:17.592Z,13.80
2022-08-07T02:58:54.177Z,13.80
2022-08-07T03:01:35.323Z,13.70
2022-08-07T03:04:07.662Z,13.70
2022-08-07T03:06:41.344Z,13.60
2022-08-07T03:09:11.220Z,13.60
2022-08-07T03:11:52.123Z,13.50
2022-08-07T03:14:27.907Z,13.50
2022-08-07T03:16:57.023Z,13.40
2022-08-07T03:19:28.911Z,13.40
2022-08-07T03:21:57.664Z,13.30
2022-08-07T03:24:28.046Z,13.30
2022-08-07T03:27:01.306Z,13.30
2022-08-07T03:29:37.441Z,13.20
2022-08-07T03:32:13.112Z,13.10
2022-08-07T03:34:47.362Z,13.10
2022-08-07T03:37:32.607Z,13.10
2022-08-07T03:40:15.047Z,13.00
2022-08-07T03:42:46.227Z,13.00
2022-08-07T03:45:30.427Z,13.00
2022-08-07T03:48:00.679Z,13.00
2022-08-07T03:50:29.691Z,13.00
2022-08-07T03:52:59.081Z,12.90
2022-08-07T03:55:57.426Z,12.90
2022-08-07T03:59:04.806Z,12.80
2022-08-07T04:01:11.106Z,12.80
2022-08-07T04:03:53.379Z,12.80
2022-08-07T04:06:37.996Z,12.80
2022-08-07T04:09:08.331Z,12.70
2022-08-07T04:12:27.252Z,12.70
2022-08-07T04:14:37.366Z,12.60
2022-08-07T04:17:20.149Z,12.60
2022-08-07T04:19:51.536Z,12.50
2022-08-07T04:22:20.489Z,12.50
2022-08-07T04:24:51.743Z,12.50
2022-08-07T04:27:25.392Z,12.60
2022-08-07T04:30:11.708Z,12.50
2022-08-07T04:32:57.839Z,12.60
2022-08-07T04:35:26.929Z,12.60
2022-08-07T04:38:03.980Z,12.60
2022-08-07T04:40:35.421Z,12.90
2022-08-07T04:43:03.828Z,13.40
2022-08-07T04:46:00.684Z,14.00
2022-08-07T04:48:36.692Z,14.60
2022-08-07T04:51:09.248Z,15.40
2022-08-07T04:54:05.323Z,16.30
2022-08-07T04:58:16.617Z,17.10
2022-08-07T05:00:11.510Z,17.90
2022-08-07T05:02:31.594Z,18.50
2022-08-07T05:05:11.835Z,19.20
2022-08-07T05:07:59.633Z,19.80
2022-08-07T05:10:34.426Z,20.50
2022-08-07T05:14:44.694Z,21.20
2022-08-07T05:15:58.451Z,21.80
2022-08-07T05:18:30.527Z,22.60
2022-08-07T05:21:04.035Z,23.10
2022-08-07T05:23:39.257Z,23.70
2022-08-07T05:26:18.747Z,24.20
2022-08-07T05:28:56.348Z,24.60
2022-08-07T05:31:34.525Z,25.30
2022-08-07T05:34:11.326Z,25.90
2022-08-07T05:36:41.409Z,26.40
2022-08-07T05:40:06.942Z,26.80
2022-08-07T05:42:01.496Z,27.20
2022-08-07T05:44:36.386Z,27.70
2022-08-07T05:47:17.833Z,28.10
2022-08-07T05:49:59.628Z,28.50
2022-08-07T05:52:30.035Z,29.00
2022-08-07T05:55:07.238Z,29.40
2022-08-07T05:57:42.193Z,29.70
2022-08-07T06:00:16.518Z,30.10
2022-08-07T06:02:48.857Z,30.40
2022-08-07T06:05:28.380Z,30.70
2022-08-07T06:08:13.469Z,31.10
2022-08-07T06:10:45.715Z,31.50
2022-08-07T06:13:15.505Z,31.70
2022-08-07T06:15:45.436Z,31.90
2022-08-07T06:18:18.769Z,32.00
2022-08-07T06:20:50.730Z,32.40
2022-08-07T06:24:36.712Z,32.70
2022-08-07T06:26:27.635Z,33.10
2022-08-07T06:29:01.049Z,33.50
2022-08-07T06:31:46.951Z,33.80
2022-08-07T06:34:20.477Z,34.00
2022-08-07T06:36:51.861Z,34.30
2022-08-07T06:40:15.611Z,34.70
2022-08-07T06:42:11.313Z,34.90
2022-08-07T06:44:41.430Z,35.00
2022-08-07T06:47:12.440Z,35.10
2022-08-07T06:49:51.902Z,35.20
2022-08-07T06:52:35.541Z,35.30
2022-08-07T06:55:32.525Z,35.40
2022-08-07T06:57:59.263Z,35.60
2022-08-07T07:00:29.423Z,35.90
2022-08-07T07:03:01.269Z,36.00
2022-08-07T07:06:03.376Z,36.20
2022-08-07T07:12:08.282Z,37.10
2022-08-07T07:14:04.760Z,37.60
2022-08-07T07:16:49.653Z,37.90
2022-08-07T07:19:58.031Z,38.20
2022-08-07T07:22:12.086Z,38.00
2022-08-07T07:25:14.247Z,38.70
2022-08-07T07:28:02.323Z,38.90
2022-08-07T07:30:39.847Z,39.00
2022-08-07T07:33:12.084Z,39.10
2022-08-07T07:36:03.917Z,39.20
2022-08-07T07:38:34.689Z,39.40
2022-08-07T07:41:08.830Z,39.80
2022-08-07T07:44:13.886Z,39.90
2022-08-07T07:46:53.715Z,40.30
2022-08-07T07:50:35.771Z,40.40
2022-08-07T07:52:12.728Z,40.60
2022-08-07T07:54:44.156Z,40.90
2022-08-07T07:57:53.439Z,41.10
2022-08-07T08:00:20.927Z,41.10
2022-08-07T08:03:05.864Z,41.10
2022-08-07T08:05:53.615Z,41.10
2022-08-07T08:08:35.133Z,41.10
2022-08-07T08:11:08.013Z,41.20
2022-08-07T08:13:52.732Z,41.20
2022-08-07T08:16:30.041Z,41.40
2022-08-07T08:19:09.773Z,41.40
2022-08-07T08:22:07.922Z,41.20
2022-08-07T08:25:04.835Z,41.30
2022-08-07T08:27:56.063Z,41.50
2022-08-07T08:30:26.779Z,41.40
2022-08-07T08:32:59.989Z,41.40
2022-08-07T08:35:42.814Z,41.50
2022-08-07T08:38:21.636Z,41.60
2022-08-07T08:40:58.943Z,41.80
2022-08-07T08:43:42.880Z,41.90
2022-08-07T08:46:38.103Z,41.90
2022-08-07T08:49:13.935Z,41.80
2022-08-07T08:52:14.437Z,42.00
2022-08-07T08:54:48.015Z,42.40
2022-08-07T08:57:27.189Z,42.90
2022-08-07T09:00:04.272Z,43.30
2022-08-07T09:02:41.873Z,43.50
2022-08-07T09:05:37.360Z,43.70
2022-08-07T09:08:37.349Z,43.80
2022-08-07T09:11:25.017Z,43.80
2022-08-07T09:14:12.111Z,43.70
2022-08-07T09:16:54.056Z,43.70
2022-08-07T09:19:44.683Z,43.70
2022-08-07T09:24:32.199Z,43.70
2022-08-07T09:25:24.371Z,43.70
2022-08-07T09:28:01.039Z,44.00
2022-08-07T09:30:35.812Z,44.40
2022-08-07T09:33:40.785Z,45.00
2022-08-07T09:36:11.853Z,45.10
2022-08-07T09:38:58.878Z,44.90
2022-08-07T09:41:36.326Z,44.90
2022-08-07T09:44:45.235Z,45.30
2022-08-07T09:47:42.526Z,45.80
2022-08-07T09:50:19.012Z,45.60
2022-08-07T09:52:52.184Z,45.70
2022-08-07T09:55:29.287Z,45.90
2022-08-07T09:58:32.439Z,45.90
2022-08-07T10:01:15.035Z,46.10
2022-08-07T10:04:28.176Z,46.20
2022-08-07T10:07:24.676Z,46.10
2022-08-07T10:10:20.990Z,46.20
2022-08-07T10:13:03.827Z,46.30
2022-08-07T10:15:44.623Z,46.30
2022-08-07T10:18:26.664Z,46.30
2022-08-07T10:21:19.609Z,46.50
2022-08-07T10:24:18.635Z,47.10
2022-08-07T10:27:00.301Z,47.70
2022-08-07T10:29:58.479Z,47.90
2022-08-07T10:32:53.850Z,47.90
2022-08-07T10:35:55.869Z,48.00
2022-08-07T10:38:46.461Z,47.70
2022-08-07T10:41:47.290Z,47.40
2022-08-07T10:44:28.838Z,47.50
2022-08-07T10:47:26.631Z,47.40
2022-08-07T10:50:06.998Z,46.90
2022-08-07T10:52:41.754Z,46.30
2022-08-07T10:55:21.203Z,45.60
2022-08-07T10:58:11.295Z,45.10
2022-08-07T11:00:56.416Z,44.70
2022-08-07T11:03:52.652Z,44.30
2022-08-07T11:06:27.895Z,43.40
2022-08-07T11:09:02.886Z,42.60
2022-08-07T11:11:37.691Z,41.80
2022-08-07T11:14:44.399Z,40.80
2022-08-07T11:17:07.274Z,39.50
2022-08-07T11:19:46.752Z,38.00
2022-08-07T11:22:32.281Z,36.60
2022-08-07T11:25:14.911Z,35.30
2022-08-07T11:28:02.914Z,34.20
2022-08-07T11:30:42.654Z,33.40
2022-08-07T11:33:18.287Z,32.60
2022-08-07T11:35:59.419Z,32.00
2022-08-07T11:38:34.233Z,31.30
2022-08-07T11:41:06.972Z,30.90
2022-08-07T11:44:10.790Z,30.60
2022-08-07T11:46:49.925Z,30.50
2022-08-07T11:50:30.029Z,30.30
2022-08-07T11:52:43.519Z,30.10
2022-08-07T11:56:14.045Z,29.90
2022-08-07T11:58:33.071Z,29.60
2022-08-07T12:01:20.319Z,29.00
2022-08-07T12:04:10.116Z,28.60
2022-08-07T12:06:51.473Z,28.40
2022-08-07T12:09:35.033Z,28.20
2022-08-07T12:12:11.985Z,28.10
2022-08-07T12:14:56.277Z,28.20
2022-08-07T12:17:35.569Z,28.20
2022-08-07T12:20:20.819Z,28.30
2022-08-07T12:24:04.886Z,28.40
2022-08-07T12:26:30.966Z,28.40
2022-08-07T12:29:17.049Z,28.20
2022-08-07T12:32:04.197Z,28.10
2022-08-07T12:34:36.162Z,28.10
2022-08-07T12:37:08.807Z,28.20
2022-08-07T12:39:51.114Z,28.30
2022-08-07T12:42:27.652Z,28.30
2022-08-07T12:44:59.568Z,28.30
2022-08-07T12:47:40.577Z,28.30
2022-08-07T12:50:38.954Z,28.40
2022-08-07T12:53:18.024Z,28.40
2022-08-07T12:56:02.132Z,28.50
2022-08-07T12:58:37.469Z,28.60
2022-08-07T13:01:19.173Z,28.50
2022-08-07T13:04:32.522Z,28.50
2022-08-07T13:08:11.914Z,28.50
2022-08-07T13:10:39.239Z,28.40
2022-08-07T13:13:47.368Z,28.30
2022-08-07T13:16:17.453Z,28.20
2022-08-07T13:18:54.544Z,28.10
2022-08-07T13:21:50.522Z,28.10
2022-08-07T13:24:25.809Z,27.90
2022-08-07T13:27:05.510Z,27.80
2022-08-07T13:29:42.513Z,27.90
2022-08-07T13:32:31.971Z,28.00
2022-08-07T13:35:08.615Z,28.10
2022-08-07T13:37:55.459Z,28.20
2022-08-07T13:40:36.027Z,28.30
2022-08-07T13:43:13.702Z,28.20
2022-08-07T13:46:11.455Z,27.90
2022-08-07T13:48:39.850Z,27.70
2022-08-07T13:51:27.329Z,27.70
2022-08-07T13:54:01.745Z,27.70
2022-08-07T13:56:36.068Z,27.70
2022-08-07T13:59:13.028Z,27.80
2022-08-07T14:01:51.134Z,27.80
2022-08-07T14:04:32.558Z,27.70
2022-08-07T14:07:09.397Z,27.60
2022-08-07T14:10:12.598Z,27.50
2022-08-07T14:12:36.284Z,27.40
2022-08-07T14:15:23.823Z,27.50
2022-08-07T14:18:27.259Z,27.50
2022-08-07T14:20:54.695Z,27.50
2022-08-07T14:23:31.623Z,27.70
2022-08-07T14:26:28.365Z,27.70
2022-08-07T14:29:05.944Z,27.50
2022-08-07T14:31:42.962Z,27.40
2022-08-07T14:34:29.199Z,27.30
2022-08-07T14:37:01.816Z,27.20
2022-08-07T14:40:15.701Z,27.10
2022-08-07T14:42:25.992Z,27.20
2022-08-07T14:44:59.515Z,27.10
2022-08-07T14:47:33.838Z,27.20
2022-08-07T14:50:05.980Z,27.20
2022-08-07T14:52:41.041Z,27.30
2022-08-07T14:55:17.408Z,27.30
2022-08-07T14:57:58.491Z,27.30
2022-08-07T15:00:31.082Z,27.30
2022-08-07T15:03:19.426Z,27.30
2022-08-07T15:08:50.123Z,27.20
2022-08-07T15:11:53.668Z,27.20
2022-08-07T15:14:18.558Z,27.10
2022-08-07T15:16:55.079Z,27.20
2022-08-07T15:20:31.560Z,27.20
2022-08-07T15:22:31.117Z,27.20
2022-08-07T15:28:07.893Z,27.30
2022-08-07T15:37:03.479Z,27.20
2022-08-07T15:39:16.943Z,27.20
2022-08-07T15:42:42.560Z,27.20
2022-08-07T15:44:52.654Z,27.10
2022-08-07T15:47:59.989Z,27.10
2022-08-07T15:53:09.030Z,27.00
2022-08-07T15:56:01.928Z,27.00
2022-08-07T15:58:38.433Z,26.90
2022-08-07T16:01:13.344Z,27.00
2022-08-07T16:03:57.413Z,27.00
2022-08-07T16:06:30.962Z,27.00
2022-08-07T16:09:07.666Z,27.00
2022-08-07T16:11:55.733Z,27.00
2022-08-07T16:14:54.316Z,27.00
2022-08-07T16:18:01.498Z,26.90
2022-08-07T16:20:44.209Z,26.80
2022-08-07T16:23:54.209Z,26.70
2022-08-07T16:26:39.609Z,26.70
2022-08-07T16:30:11.334Z,26.60
2022-08-07T16:32:46.186Z,26.60
2022-08-07T16:35:51.779Z,26.60
2022-08-07T16:38:19.638Z,26.60
2022-08-07T16:41:41.065Z,26.50
2022-08-07T16:44:53.687Z,26.40
2022-08-07T16:47:56.540Z,26.40
2022-08-07T16:50:38.699Z,26.50
2022-08-07T16:54:03.164Z,26.60
2022-08-07T16:56:37.497Z,26.60
2022-08-07T16:59:17.676Z,26.50
2022-08-07T17:02:09.084Z,26.50
2022-08-07T17:04:51.035Z,26.50
2022-08-07T17:07:55.175Z,26.50
2022-08-07T17:10:35.721Z,26.50
2022-08-07T17:13:41.687Z,26.40
2022-08-07T17:16:22.494Z,26.40
2022-08-07T17:19:03.086Z,26.30
2022-08-07T17:21:51.824Z,26.20
2022-08-07T17:24:32.932Z,26.20
2022-08-07T17:27:06.251Z,26.20
2022-08-07T17:30:15.276Z,26.20
2022-08-07T17:32:53.531Z,26.10
2022-08-07T17:35:50.809Z,26.10
2022-08-07T17:38:33.670Z,25.90
2022-08-07T17:42:00.831Z,25.90
2022-08-07T17:44:05.904Z,25.80
2022-08-07T17:46:44.257Z,25.80
2022-08-07T17:49:24.413Z,25.70
2022-08-07T17:52:00.692Z,25.60
2022-08-07T17:54:53.225Z,25.50
2022-08-07T17:57:56.255Z,25.50
2022-08-07T18:00:33.343Z,25.40
2022-08-07T18:03:18.560Z,25.40
2022-08-07T18:06:01.833Z,25.30
2022-08-07T18:08:33.821Z,25.20
2022-08-07T18:12:06.542Z,25.10
2022-08-07T18:14:06.698Z,25.00
2022-08-07T18:16:58.319Z,24.90
2022-08-07T18:21:09.541Z,24.80
2022-08-07T18:22:33.126Z,24.70
2022-08-07T18:25:24.251Z,24.60
2022-08-07T18:28:35.627Z,24.50
2022-08-07T18:31:06.229Z,24.40
2022-08-07T18:33:58.111Z,24.20
2022-08-07T18:36:40.978Z,24.20
2022-08-07T18:40:07.535Z,24.10
2022-08-07T18:42:22.430Z,24.00
2022-08-07T18:45:43.596Z,23.90
2022-08-07T18:48:00.759Z,23.80
2022-08-07T18:50:49.376Z,23.80
2022-08-07T18:53:37.084Z,23.70
2022-08-07T18:56:15.126Z,23.60
2022-08-07T18:59:06.203Z,23.50
2022-08-07T19:02:31.795Z,23.40
2022-08-07T19:04:56.275Z,23.30
2022-08-07T19:07:35.704Z,23.20
2022-08-07T19:10:14.914Z,23.10
2022-08-07T19:12:58.158Z,23.00
2022-08-07T19:16:04.642Z,22.90
2022-08-07T19:18:34.431Z,22.80
2022-08-07T19:21:13.955Z,22.70
2022-08-07T19:24:02.337Z,22.70
2022-08-07T19:28:28.420Z,22.70
2022-08-07T19:31:03.755Z,22.60
2022-08-07T19:32:28.838Z,22.50
2022-08-07T19:35:12.331Z,22.40
2022-08-07T19:37:56.864Z,22.30
2022-08-07T19:40:34.629Z,22.20
2022-08-07T19:43:10.848Z,22.20
2022-08-07T19:46:04.816Z,22.10
2022-08-07T19:48:42.827Z,22.00
2022-08-07T19:51:19.993Z,22.00
2022-08-07T19:54:35.609Z,21.90
2022-08-07T19:57:51.781Z,21.80
2022-08-07T19:59:41.627Z,21.70
2022-08-07T20:02:19.166Z,21.70
2022-08-07T20:04:50.359Z,21.60
2022-08-07T20:07:47.825Z,21.50
2022-08-07T20:10:37.085Z,21.50
2022-08-07T20:13:15.915Z,21.50
2022-08-07T20:15:55.130Z,21.30
2022-08-07T20:18:32.226Z,21.30
2022-08-07T20:21:03.207Z,21.20
2022-08-07T20:23:43.053Z,21.10
2022-08-07T20:26:29.944Z,21.10
2022-08-07T20:29:10.351Z,21.00
2022-08-07T20:31:44.075Z,20.90
2022-08-07T20:34:34.461Z,20.80
2022-08-07T20:37:09.065Z,20.80
2022-08-07T20:40:02.521Z,20.70
2022-08-07T20:42:31.134Z,20.70
2022-08-07T20:45:01.911Z,20.60
2022-08-07T20:47:56.876Z,20.50
2022-08-07T20:50:26.606Z,20.50
2022-08-07T20:52:54.372Z,20.40
2022-08-07T20:55:26.129Z,20.30
2022-08-07T20:58:02.430Z,20.20
2022-08-07T21:00:43.411Z,20.20
2022-08-07T21:03:15.392Z,20.10
2022-08-07T21:05:54.435Z,20.00
2022-08-07T21:08:33.196Z,20.00
2022-08-07T21:11:12.206Z,19.90
2022-08-07T21:14:16.339Z,19.80
2022-08-07T21:16:56.296Z,19.60
2022-08-07T21:19:31.841Z,19.60
2022-08-07T21:22:19.782Z,19.50
2022-08-07T21:25:04.840Z,19.40
2022-08-07T21:27:53.772Z,19.40
2022-08-07T21:30:24.399Z,19.30
2022-08-07T21:33:08.349Z,19.30
2022-08-07T21:36:05.928Z,19.30
2022-08-07T21:38:49.813Z,19.30
2022-08-07T21:41:23.467Z,19.30
2022-08-07T21:44:07.037Z,19.20
2022-08-07T21:46:47.520Z,19.10
2022-08-07T21:49:26.918Z,19.10
2022-08-07T21:52:11.455Z,19.00
2022-08-07T21:54:48.584Z,19.00
2022-08-07T21:57:39.686Z,19.00
2022-08-07T22:00:22.845Z,18.90
2022-08-07T22:02:59.894Z,18.90
2022-08-07T22:05:45.896Z,18.90
2022-08-07T22:08:20.143Z,18.80
2022-08-07T22:10:51.801Z,18.80
2022-08-07T22:13:24.657Z,18.80
2022-08-07T22:16:39.739Z,18.70
2022-08-07T22:19:08.196Z,18.70
2022-08-07T22:22:04.927Z,18.60
2022-08-07T22:24:36.607Z,18.60
2022-08-07T22:27:10.138Z,18.60
2022-08-07T22:29:48.146Z,18.50
2022-08-07T22:32:24.908Z,18.50
2022-08-07T22:34:55.138Z,18.50
2022-08-07T22:38:03.373Z,18.40
2022-08-07T22:40:27.747Z,18.40
2022-08-07T22:43:02.209Z,18.40
2022-08-07T22:46:21.518Z,18.40
2022-08-07T22:49:09.124Z,18.30
2022-08-07T22:51:57.999Z,18.30
2022-08-07T22:54:58.599Z,18.30
2022-08-07T22:57:59.313Z,18.30
2022-08-07T23:00:33.125Z,18.30
2022-08-07T23:03:58.457Z,18.20
2022-08-07T23:07:00.071Z,18.20
2022-08-07T23:10:04.720Z,18.10
2022-08-07T23:12:46.207Z,18.10
2022-08-07T23:16:06.725Z,18.00
2022-08-07T23:18:25.965Z,18.00
2022-08-07T23:21:23.236Z,18.00
2022-08-07T23:24:28.968Z,17.90
2022-08-07T23:27:11.794Z,17.80
2022-08-07T23:30:38.187Z,17.80
2022-08-07T23:34:22.687Z,17.80
2022-08-07T23:36:31.386Z,17.70
2022-08-07T23:39:08.537Z,17.70
2022-08-07T23:42:05.009Z,17.60
2022-08-07T23:44:55.073Z,17.60
2022-08-07T23:47:46.668Z,17.50
2022-08-07T23:50:29.885Z,17.50
2022-08-07T23:53:17.645Z,17.50
2022-08-07T23:55:55.535Z,17.40
2022-08-07T23:58:32.110Z,17.40
